sensor_id;sensor_type;location;lat;lon;timestamp;pressure;altitude;pressure_sealevel;temperature;humidity
20115;BME280;10218;42.874;25.320;2024-02-28T00:01:08;97485.97;;;7.98;100.00
20115;BME280;10218;42.874;25.320;2024-02-28T00:03:36;97490.19;;;8.01;100.00
20115;BME280;10218;42.874;25.320;2024-02-28T00:06:03;97488.16;;;8.12;100.00
20115;BME280;10218;42.874;25.320;2024-02-28T00:08:30;97479.16;;;7.96;100.00
20115;BME280;10218;42.874;25.320;2024-02-28T00:10:57;97495.19;;;8.04;100.00
20115;BME280;10218;42.874;25.320;2024-02-28T00:13:24;97497.31;;;8.00;100.00
20115;BME280;10218;42.874;25.320;2024-02-28T00:15:51;97492.38;;;7.78;100.00
20115;BME280;10218;42.874;25.320;2024-02-28T00:18:19;97487.25;;;7.67;100.00
20115;BME280;10218;42.874;25.320;2024-02-28T00:20:46;97500.94;;;7.82;100.00
20115;BME280;10218;42.874;25.320;2024-02-28T00:23:13;97493.66;;;7.74;100.00
20115;BME280;10218;42.874;25.320;2024-02-28T00:25:40;97493.47;;;7.85;100.00
20115;BME280;10218;42.874;25.320;2024-02-28T00:28:07;97501.25;;;7.69;100.00
20115;BME280;10218;42.874;25.320;2024-02-28T00:30:35;97477.44;;;7.77;100.00
20115;BME280;10218;42.874;25.320;2024-02-28T00:33:02;97486.34;;;7.86;100.00
20115;BME280;10218;42.874;25.320;2024-02-28T00:35:31;97483.03;;;7.74;100.00
20115;BME280;10218;42.874;25.320;2024-02-28T00:38:01;97477.63;;;7.66;100.00
20115;BME280;10218;42.874;25.320;2024-02-28T00:40:28;97483.03;;;7.74;100.00
20115;BME280;10218;42.874;25.320;2024-02-28T00:42:55;97485.81;;;7.82;100.00
20115;BME280;10218;42.874;25.320;2024-02-28T00:45:22;97477.66;;;7.84;100.00
20115;BME280;10218;42.874;25.320;2024-02-28T00:47:49;97462.59;;;7.74;100.00
20115;BME280;10218;42.874;25.320;2024-02-28T00:50:16;97486.88;;;7.89;100.00
20115;BME280;10218;42.874;25.320;2024-02-28T00:52:46;97486.09;;;7.79;100.00
20115;BME280;10218;42.874;25.320;2024-02-28T00:55:13;97445.09;;;7.45;100.00
20115;BME280;10218;42.874;25.320;2024-02-28T00:57:40;97474.66;;;7.69;100.00
20115;BME280;10218;42.874;25.320;2024-02-28T01:00:08;97474.16;;;7.56;100.00
20115;BME280;10218;42.874;25.320;2024-02-28T01:02:36;97480.66;;;7.34;100.00
20115;BME280;10218;42.874;25.320;2024-02-28T01:05:04;97485.28;;;7.22;100.00
20115;BME280;10218;42.874;25.320;2024-02-28T01:07:31;97482.00;;;7.48;100.00
20115;BME280;10218;42.874;25.320;2024-02-28T01:09:58;97481.50;;;7.35;100.00
20115;BME280;10218;42.874;25.320;2024-02-28T01:12:25;97477.50;;;7.58;100.00
20115;BME280;10218;42.874;25.320;2024-02-28T01:14:53;97481.72;;;7.51;100.00
20115;BME280;10218;42.874;25.320;2024-02-28T01:17:20;97471.63;;;7.54;100.00
20115;BME280;10218;42.874;25.320;2024-02-28T01:19:48;97468.97;;;7.54;100.00
20115;BME280;10218;42.874;25.320;2024-02-28T01:22:15;97485.41;;;7.67;100.00
20115;BME280;10218;42.874;25.320;2024-02-28T01:24:43;97483.19;;;7.36;100.00
20115;BME280;10218;42.874;25.320;2024-02-28T01:27:09;97483.09;;;7.55;100.00
20115;BME280;10218;42.874;25.320;2024-02-28T01:29:36;97482.22;;;7.64;100.00
20115;BME280;10218;42.874;25.320;2024-02-28T01:32:04;97486.13;;;7.69;100.00
20115;BME280;10218;42.874;25.320;2024-02-28T01:34:31;97488.88;;;7.87;100.00
20115;BME280;10218;42.874;25.320;2024-02-28T01:36:58;97488.44;;;7.55;100.00
20115;BME280;10218;42.874;25.320;2024-02-28T01:39:25;97486.34;;;7.49;100.00
20115;BME280;10218;42.874;25.320;2024-02-28T01:41:53;97482.78;;;7.11;100.00
20115;BME280;10218;42.874;25.320;2024-02-28T01:44:21;97490.91;;;7.66;100.00
20115;BME280;10218;42.874;25.320;2024-02-28T01:46:48;97488.13;;;7.58;100.00
20115;BME280;10218;42.874;25.320;2024-02-28T01:49:16;97493.34;;;7.50;100.00
20115;BME280;10218;42.874;25.320;2024-02-28T01:51:44;97487.50;;;7.37;100.00
20115;BME280;10218;42.874;25.320;2024-02-28T01:54:14;97486.22;;;7.50;100.00
20115;BME280;10218;42.874;25.320;2024-02-28T01:56:43;97489.34;;;7.17;100.00
20115;BME280;10218;42.874;25.320;2024-02-28T01:59:10;97493.75;;;7.55;100.00
20115;BME280;10218;42.874;25.320;2024-02-28T02:01:38;97493.75;;;7.55;100.00
20115;BME280;10218;42.874;25.320;2024-02-28T02:04:05;97495.13;;;7.59;100.00
20115;BME280;10218;42.874;25.320;2024-02-28T02:06:33;97493.34;;;7.50;100.00
20115;BME280;10218;42.874;25.320;2024-02-28T02:09:03;97497.47;;;7.62;100.00
20115;BME280;10218;42.874;25.320;2024-02-28T02:11:31;97504.84;;;7.41;100.00
20115;BME280;10218;42.874;25.320;2024-02-28T02:13:58;97503.44;;;7.37;100.00
20115;BME280;10218;42.874;25.320;2024-02-28T02:16:25;97508.03;;;7.44;100.00
20115;BME280;10218;42.874;25.320;2024-02-28T02:18:57;97502.69;;;7.54;100.00
20115;BME280;10218;42.874;25.320;2024-02-28T02:21:28;97499.97;;;7.73;100.00
20115;BME280;10218;42.874;25.320;2024-02-28T02:23:57;97506.69;;;7.30;100.00
20115;BME280;10218;42.874;25.320;2024-02-28T02:26:24;97509.75;;;7.36;100.00
20115;BME280;10218;42.874;25.320;2024-02-28T02:28:51;97507.53;;;7.21;100.00
20115;BME280;10218;42.874;25.320;2024-02-28T02:31:18;97512.56;;;7.24;100.00
20115;BME280;10218;42.874;25.320;2024-02-28T02:33:45;97509.37;;;7.21;100.00
20115;BME280;10218;42.874;25.320;2024-02-28T02:36:12;97513.69;;;7.12;100.00
20115;BME280;10218;42.874;25.320;2024-02-28T02:38:39;97519.56;;;7.06;100.00
20115;BME280;10218;42.874;25.320;2024-02-28T02:41:07;97522.00;;;7.56;100.00
20115;BME280;10218;42.874;25.320;2024-02-28T02:43:33;97530.78;;;7.10;100.00
20115;BME280;10218;42.874;25.320;2024-02-28T02:46:01;97529.09;;;7.18;100.00
20115;BME280;10218;42.874;25.320;2024-02-28T02:48:28;97526.56;;;7.07;100.00
20115;BME280;10218;42.874;25.320;2024-02-28T02:50:55;97529.38;;;7.15;100.00
20115;BME280;10218;42.874;25.320;2024-02-28T02:53:22;97533.13;;;7.22;100.00
20115;BME280;10218;42.874;25.320;2024-02-28T02:55:49;97533.28;;;7.21;100.00
20115;BME280;10218;42.874;25.320;2024-02-28T02:58:16;97539.56;;;7.29;100.00
20115;BME280;10218;42.874;25.320;2024-02-28T03:00:43;97536.91;;;7.20;100.00
20115;BME280;10218;42.874;25.320;2024-02-28T03:03:10;97546.97;;;7.36;100.00
20115;BME280;10218;42.874;25.320;2024-02-28T03:05:37;97536.50;;;7.24;100.00
20115;BME280;10218;42.874;25.320;2024-02-28T03:08:05;97536.06;;;7.19;100.00
20115;BME280;10218;42.874;25.320;2024-02-28T03:10:32;97543.62;;;7.24;100.00
20115;BME280;10218;42.874;25.320;2024-02-28T03:12:59;97529.09;;;7.18;100.00
20115;BME280;10218;42.874;25.320;2024-02-28T03:15:27;97544.19;;;7.08;100.00
20115;BME280;10218;42.874;25.320;2024-02-28T03:17:54;97548.38;;;7.20;100.00
20115;BME280;10218;42.874;25.320;2024-02-28T03:20:21;97550.34;;;6.99;100.00
20115;BME280;10218;42.874;25.320;2024-02-28T03:22:49;97534.13;;;6.83;100.00
20115;BME280;10218;42.874;25.320;2024-02-28T03:25:16;97561.81;;;6.90;100.00
20115;BME280;10218;42.874;25.320;2024-02-28T03:27:43;97561.25;;;7.15;100.00
20115;BME280;10218;42.874;25.320;2024-02-28T03:30:10;97564.88;;;7.14;100.00
20115;BME280;10218;42.874;25.320;2024-02-28T03:32:37;97559.28;;;7.17;100.00
20115;BME280;10218;42.874;25.320;2024-02-28T03:35:04;97565.72;;;7.24;100.00
20115;BME280;10218;42.874;25.320;2024-02-28T03:37:32;97563.63;;;6.80;100.00
20115;BME280;10218;42.874;25.320;2024-02-28T03:39:59;97573.00;;;6.65;100.00
20115;BME280;10218;42.874;25.320;2024-02-28T03:42:26;97568.78;;;6.72;100.00
20115;BME280;10218;42.874;25.320;2024-02-28T03:44:53;97563.44;;;6.43;100.00
20115;BME280;10218;42.874;25.320;2024-02-28T03:47:21;97583.59;;;6.65;100.00
20115;BME280;10218;42.874;25.320;2024-02-28T03:49:48;97577.72;;;6.61;100.00
20115;BME280;10218;42.874;25.320;2024-02-28T03:52:15;97572.16;;;6.64;100.00
20115;BME280;10218;42.874;25.320;2024-02-28T03:54:43;97587.13;;;6.75;100.00
20115;BME280;10218;42.874;25.320;2024-02-28T03:57:10;97574.59;;;6.37;100.00
20115;BME280;10218;42.874;25.320;2024-02-28T03:59:37;97590.19;;;6.80;100.00
20115;BME280;10218;42.874;25.320;2024-02-28T04:02:04;97591.94;;;6.51;100.00
20115;BME280;10218;42.874;25.320;2024-02-28T04:04:32;97590.53;;;6.47;100.00
20115;BME280;10218;42.874;25.320;2024-02-28T04:06:59;97585.22;;;6.37;100.00
20115;BME280;10218;42.874;25.320;2024-02-28T04:09:26;97592.31;;;6.36;100.00
20115;BME280;10218;42.874;25.320;2024-02-28T04:11:54;97603.06;;;6.35;100.00
20115;BME280;10218;42.874;25.320;2024-02-28T04:14:21;97593.63;;;6.52;100.00
20115;BME280;10218;42.874;25.320;2024-02-28T04:16:48;97598.81;;;6.63;100.00
20115;BME280;10218;42.874;25.320;2024-02-28T04:19:17;97596.88;;;6.55;100.00
20115;BME280;10218;42.874;25.320;2024-02-28T04:21:44;97600.63;;;6.53;100.00
20115;BME280;10218;42.874;25.320;2024-02-28T04:24:11;97596.94;;;6.34;100.00
20115;BME280;10218;42.874;25.320;2024-02-28T04:26:40;97595.88;;;6.66;100.00
20115;BME280;10218;42.874;25.320;2024-02-28T04:29:07;97572.88;;;6.26;100.00
20115;BME280;10218;42.874;25.320;2024-02-28T04:31:40;97607.06;;;6.60;100.00
20115;BME280;10218;42.874;25.320;2024-02-28T04:34:07;97594.75;;;6.49;100.00
20115;BME280;10218;42.874;25.320;2024-02-28T04:36:34;97608.69;;;6.41;100.00
20115;BME280;10218;42.874;25.320;2024-02-28T04:39:02;97613.19;;;6.51;100.00
20115;BME280;10218;42.874;25.320;2024-02-28T04:41:30;97605.38;;;6.59;100.00
20115;BME280;10218;42.874;25.320;2024-02-28T04:43:57;97600.47;;;6.44;100.00
20115;BME280;10218;42.874;25.320;2024-02-28T04:46:25;97616.22;;;6.36;100.00
20115;BME280;10218;42.874;25.320;2024-02-28T04:48:52;97614.50;;;6.26;100.00
20115;BME280;10218;42.874;25.320;2024-02-28T04:51:19;97612.88;;;6.34;100.00
20115;BME280;10218;42.874;25.320;2024-02-28T04:53:46;97608.03;;;6.09;100.00
20115;BME280;10218;42.874;25.320;2024-02-28T04:56:13;97610.81;;;6.08;100.00
20115;BME280;10218;42.874;25.320;2024-02-28T04:58:40;97611.94;;;6.15;100.00
20115;BME280;10218;42.874;25.320;2024-02-28T05:01:07;97615.34;;;6.26;100.00
20115;BME280;10218;42.874;25.320;2024-02-28T05:03:35;97622.47;;;6.75;100.00
20115;BME280;10218;42.874;25.320;2024-02-28T05:06:02;97606.53;;;6.75;100.00
20115;BME280;10218;42.874;25.320;2024-02-28T05:08:30;97624.91;;;6.48;100.00
20115;BME280;10218;42.874;25.320;2024-02-28T05:10:57;97617.38;;;6.53;100.00
20115;BME280;10218;42.874;25.320;2024-02-28T05:13:23;97624.88;;;6.38;100.00
20115;BME280;10218;42.874;25.320;2024-02-28T05:15:51;97616.59;;;6.22;100.00
20115;BME280;10218;42.874;25.320;2024-02-28T05:18:18;97632.03;;;6.48;100.00
20115;BME280;10218;42.874;25.320;2024-02-28T05:20:45;97631.03;;;6.39;100.00
20115;BME280;10218;42.874;25.320;2024-02-28T05:23:13;97624.63;;;6.51;100.00
20115;BME280;10218;42.874;25.320;2024-02-28T05:25:40;97637.28;;;6.78;100.00
20115;BME280;10218;42.874;25.320;2024-02-28T05:28:07;97638.16;;;6.38;100.00
20115;BME280;10218;42.874;25.320;2024-02-28T05:30:34;97631.03;;;6.39;100.00
20115;BME280;10218;42.874;25.320;2024-02-28T05:33:01;97635.59;;;6.27;100.00
20115;BME280;10218;42.874;25.320;2024-02-28T05:35:28;97635.12;;;6.13;100.00
20115;BME280;10218;42.874;25.320;2024-02-28T05:37:56;97637.69;;;6.24;100.00
20115;BME280;10218;42.874;25.320;2024-02-28T05:40:23;97641.72;;;6.58;100.00
20115;BME280;10218;42.874;25.320;2024-02-28T05:42:50;97643.41;;;6.69;100.00
20115;BME280;10218;42.874;25.320;2024-02-28T05:45:17;97641.59;;;6.60;100.00
20115;BME280;10218;42.874;25.320;2024-02-28T05:47:44;97639.28;;;6.45;100.00
20115;BME280;10218;42.874;25.320;2024-02-28T05:50:11;97651.56;;;6.37;100.00
20115;BME280;10218;42.874;25.320;2024-02-28T05:52:41;97644.00;;;6.82;100.00
20115;BME280;10218;42.874;25.320;2024-02-28T05:55:09;97654.47;;;6.83;100.00
20115;BME280;10218;42.874;25.320;2024-02-28T05:57:37;97650.88;;;7.23;100.00
20115;BME280;10218;42.874;25.320;2024-02-28T06:00:05;97646.13;;;7.07;100.00
20115;BME280;10218;42.874;25.320;2024-02-28T06:02:37;97653.00;;;7.10;100.00
20115;BME280;10218;42.874;25.320;2024-02-28T06:05:05;97646.00;;;7.38;100.00
20115;BME280;10218;42.874;25.320;2024-02-28T06:07:32;97662.47;;;7.12;100.00
20115;BME280;10218;42.874;25.320;2024-02-28T06:09:59;97650.75;;;7.44;100.00
20115;BME280;10218;42.874;25.320;2024-02-28T06:12:27;97655.34;;;7.42;100.00
20115;BME280;10218;42.874;25.320;2024-02-28T06:14:54;97659.44;;;7.55;100.00
20115;BME280;10218;42.874;25.320;2024-02-28T06:17:21;97657.31;;;8.25;100.00
20115;BME280;10218;42.874;25.320;2024-02-28T06:19:49;97642.19;;;8.25;100.00
20115;BME280;10218;42.874;25.320;2024-02-28T06:22:18;97653.69;;;8.63;100.00
20115;BME280;10218;42.874;25.320;2024-02-28T06:24:46;97654.72;;;8.52;100.00
20115;BME280;10218;42.874;25.320;2024-02-28T06:27:13;97656.25;;;8.82;100.00
20115;BME280;10218;42.874;25.320;2024-02-28T06:29:40;97659.44;;;8.31;100.00
20115;BME280;10218;42.874;25.320;2024-02-28T06:32:07;97653.44;;;8.83;100.00
20115;BME280;10218;42.874;25.320;2024-02-28T06:34:35;97652.91;;;9.15;100.00
20115;BME280;10218;42.874;25.320;2024-02-28T06:37:02;97656.91;;;9.47;100.00
20115;BME280;10218;42.874;25.320;2024-02-28T06:39:30;97652.22;;;9.84;100.00
20115;BME280;10218;42.874;25.320;2024-02-28T06:41:57;97640.28;;;9.53;100.00
20115;BME280;10218;42.874;25.320;2024-02-28T06:44:24;97636.00;;;10.03;100.00
20115;BME280;10218;42.874;25.320;2024-02-28T06:46:54;97648.84;;;10.59;100.00
20115;BME280;10218;42.874;25.320;2024-02-28T06:49:22;97651.25;;;10.79;100.00
20115;BME280;10218;42.874;25.320;2024-02-28T06:51:49;97638.41;;;10.40;100.00
20115;BME280;10218;42.874;25.320;2024-02-28T06:54:16;97652.94;;;10.80;100.00
20115;BME280;10218;42.874;25.320;2024-02-28T06:56:43;97657.66;;;10.94;100.00
20115;BME280;10218;42.874;25.320;2024-02-28T06:59:11;97660.75;;;11.23;100.00
20115;BME280;10218;42.874;25.320;2024-02-28T07:01:38;97655.44;;;11.55;100.00
20115;BME280;10218;42.874;25.320;2024-02-28T07:04:06;97662.44;;;11.48;100.00
20115;BME280;10218;42.874;25.320;2024-02-28T07:06:33;97660.47;;;11.58;100.00
20115;BME280;10218;42.874;25.320;2024-02-28T07:09:00;97659.31;;;12.10;100.00
20115;BME280;10218;42.874;25.320;2024-02-28T07:11:27;97668.69;;;12.06;100.00
20115;BME280;10218;42.874;25.320;2024-02-28T07:13:54;97662.56;;;12.52;100.00
20115;BME280;10218;42.874;25.320;2024-02-28T07:16:21;97663.25;;;12.46;100.00
20115;BME280;10218;42.874;25.320;2024-02-28T07:18:48;97656.88;;;12.94;100.00
20115;BME280;10218;42.874;25.320;2024-02-28T07:21:15;97663.25;;;13.32;100.00
20115;BME280;10218;42.874;25.320;2024-02-28T07:23:42;97651.59;;;14.23;100.00
20115;BME280;10218;42.874;25.320;2024-02-28T07:26:15;97660.00;;;14.05;100.00
20115;BME280;10218;42.874;25.320;2024-02-28T07:28:42;97653.66;;;14.35;100.00
20115;BME280;10218;42.874;25.320;2024-02-28T07:31:16;97644.72;;;14.72;100.00
20115;BME280;10218;42.874;25.320;2024-02-28T07:33:43;97654.16;;;14.68;100.00
20115;BME280;10218;42.874;25.320;2024-02-28T07:36:11;97653.69;;;14.79;100.00
20115;BME280;10218;42.874;25.320;2024-02-28T07:38:37;97658.00;;;15.60;100.00
20115;BME280;10218;42.874;25.320;2024-02-28T07:41:05;97659.88;;;15.45;100.00
20115;BME280;10218;42.874;25.320;2024-02-28T07:43:32;97662.38;;;15.82;100.00
20115;BME280;10218;42.874;25.320;2024-02-28T07:46:07;97655.81;;;15.92;100.00
20115;BME280;10218;42.874;25.320;2024-02-28T07:48:35;97652.19;;;16.27;96.18
20115;BME280;10218;42.874;25.320;2024-02-28T07:51:08;97642.25;;;16.27;95.27
20115;BME280;10218;42.874;25.320;2024-02-28T07:53:36;97654.00;;;16.48;100.00
20115;BME280;10218;42.874;25.320;2024-02-28T07:56:03;97646.56;;;16.50;96.50
20115;BME280;10218;42.874;25.320;2024-02-28T07:58:30;97653.41;;;16.87;89.57
20115;BME280;10218;42.874;25.320;2024-02-28T08:00:57;97651.34;;;17.30;87.06
20115;BME280;10218;42.874;25.320;2024-02-28T08:03:25;97648.16;;;17.80;79.62
20115;BME280;10218;42.874;25.320;2024-02-28T08:05:52;97647.72;;;17.64;79.66
20115;BME280;10218;42.874;25.320;2024-02-28T08:08:19;97642.72;;;17.61;79.89
20115;BME280;10218;42.874;25.320;2024-02-28T08:10:46;97650.00;;;17.06;88.04
20115;BME280;10218;42.874;25.320;2024-02-28T08:13:15;97647.59;;;17.37;81.44
20115;BME280;10218;42.874;25.320;2024-02-28T08:15:42;97652.31;;;17.70;80.73
20115;BME280;10218;42.874;25.320;2024-02-28T08:18:10;97639.03;;;17.81;77.27
20115;BME280;10218;42.874;25.320;2024-02-28T08:20:39;97646.94;;;18.22;76.35
20115;BME280;10218;42.874;25.320;2024-02-28T08:23:07;97646.47;;;17.60;76.24
20115;BME280;10218;42.874;25.320;2024-02-28T08:25:34;97644.44;;;18.60;65.13
20115;BME280;10218;42.874;25.320;2024-02-28T08:28:01;97638.16;;;17.68;68.61
20115;BME280;10218;42.874;25.320;2024-02-28T08:30:28;97642.72;;;18.86;66.69
20115;BME280;10218;42.874;25.320;2024-02-28T08:32:55;97652.09;;;18.83;65.98
20115;BME280;10218;42.874;25.320;2024-02-28T08:35:22;97638.59;;;19.72;60.69
20115;BME280;10218;42.874;25.320;2024-02-28T08:37:50;97639.16;;;19.43;59.51
20115;BME280;10218;42.874;25.320;2024-02-28T08:40:18;97624.44;;;20.26;57.81
20115;BME280;10218;42.874;25.320;2024-02-28T08:42:45;97632.19;;;19.15;61.94
20115;BME280;10218;42.874;25.320;2024-02-28T08:45:13;97626.66;;;19.35;63.39
20115;BME280;10218;42.874;25.320;2024-02-28T08:47:41;97636.66;;;19.41;64.19
20115;BME280;10218;42.874;25.320;2024-02-28T08:50:08;97631.81;;;20.13;59.58
20115;BME280;10218;42.874;25.320;2024-02-28T08:52:36;97633.03;;;20.17;57.60
20115;BME280;10218;42.874;25.320;2024-02-28T08:55:03;97640.16;;;19.86;59.96
20115;BME280;10218;42.874;25.320;2024-02-28T08:57:30;97642.25;;;19.53;57.41
20115;BME280;10218;42.874;25.320;2024-02-28T08:59:58;97635.50;;;19.24;59.00
20115;BME280;10218;42.874;25.320;2024-02-28T09:02:25;97633.22;;;19.66;58.15
20115;BME280;10218;42.874;25.320;2024-02-28T09:04:52;97635.63;;;19.80;56.85
20115;BME280;10218;42.874;25.320;2024-02-28T09:07:23;97630.19;;;20.79;52.45
20115;BME280;10218;42.874;25.320;2024-02-28T09:09:50;97624.00;;;21.09;51.27
20115;BME280;10218;42.874;25.320;2024-02-28T09:12:17;97627.06;;;21.49;48.12
20115;BME280;10218;42.874;25.320;2024-02-28T09:14:44;97612.19;;;22.34;45.36
20115;BME280;10218;42.874;25.320;2024-02-28T09:17:12;97616.00;;;22.80;44.09
20115;BME280;10218;42.874;25.320;2024-02-28T09:19:39;97613.88;;;23.22;43.12
20115;BME280;10218;42.874;25.320;2024-02-28T09:22:06;97625.44;;;21.29;44.74
20115;BME280;10218;42.874;25.320;2024-02-28T09:24:34;97594.75;;;21.70;44.67
20115;BME280;10218;42.874;25.320;2024-02-28T09:27:03;97611.12;;;20.86;46.71
20115;BME280;10218;42.874;25.320;2024-02-28T09:29:33;97611.81;;;21.77;44.15
20115;BME280;10218;42.874;25.320;2024-02-28T09:32:00;97618.66;;;23.55;42.02
20115;BME280;10218;42.874;25.320;2024-02-28T09:34:27;97618.13;;;21.12;43.59
20115;BME280;10218;42.874;25.320;2024-02-28T09:36:54;97622.34;;;22.27;41.36
20115;BME280;10218;42.874;25.320;2024-02-28T09:39:22;97612.81;;;21.65;41.16
20115;BME280;10218;42.874;25.320;2024-02-28T09:41:49;97617.50;;;21.46;41.76
20115;BME280;10218;42.874;25.320;2024-02-28T09:44:16;97614.09;;;21.92;41.84
20115;BME280;10218;42.874;25.320;2024-02-28T09:46:44;97627.84;;;20.65;43.02
20115;BME280;10218;42.874;25.320;2024-02-28T09:49:15;97619.69;;;20.83;42.91
20115;BME280;10218;42.874;25.320;2024-02-28T09:51:43;97607.94;;;20.89;42.59
20115;BME280;10218;42.874;25.320;2024-02-28T09:54:11;97621.13;;;21.40;41.92
20115;BME280;10218;42.874;25.320;2024-02-28T09:56:38;97617.06;;;21.31;42.57
20115;BME280;10218;42.874;25.320;2024-02-28T09:59:06;97605.63;;;21.70;42.41
20115;BME280;10218;42.874;25.320;2024-02-28T10:01:40;97609.59;;;21.26;41.85
20115;BME280;10218;42.874;25.320;2024-02-28T10:04:09;97606.63;;;21.88;41.79
20115;BME280;10218;42.874;25.320;2024-02-28T10:06:39;97603.28;;;21.14;42.46
20115;BME280;10218;42.874;25.320;2024-02-28T10:09:06;97609.06;;;21.00;42.67
20115;BME280;10218;42.874;25.320;2024-02-28T10:11:34;97601.28;;;21.81;41.91
20115;BME280;10218;42.874;25.320;2024-02-28T10:14:04;97593.22;;;21.74;41.54
20115;BME280;10218;42.874;25.320;2024-02-28T10:16:31;97603.41;;;22.32;40.55
20115;BME280;10218;42.874;25.320;2024-02-28T10:18:58;97588.41;;;23.16;39.96
20115;BME280;10218;42.874;25.320;2024-02-28T10:21:26;97583.88;;;22.47;40.02
20115;BME280;10218;42.874;25.320;2024-02-28T10:23:53;97585.69;;;22.30;40.97
20115;BME280;10218;42.874;25.320;2024-02-28T10:26:20;97595.41;;;21.54;41.56
20115;BME280;10218;42.874;25.320;2024-02-28T10:28:47;97583.41;;;21.32;42.95
20115;BME280;10218;42.874;25.320;2024-02-28T10:31:14;97574.03;;;20.37;43.43
20115;BME280;10218;42.874;25.320;2024-02-28T10:33:42;97578.78;;;21.62;41.95
20115;BME280;10218;42.874;25.320;2024-02-28T10:36:09;97564.22;;;22.10;40.36
20115;BME280;10218;42.874;25.320;2024-02-28T10:38:37;97587.38;;;21.29;41.45
20115;BME280;10218;42.874;25.320;2024-02-28T10:41:05;97564.38;;;22.38;40.03
20115;BME280;10218;42.874;25.320;2024-02-28T10:43:33;97569.78;;;22.61;39.72
20115;BME280;10218;42.874;25.320;2024-02-28T10:46:01;97559.03;;;23.18;39.11
20115;BME280;10218;42.874;25.320;2024-02-28T10:48:31;97561.50;;;23.93;37.46
20115;BME280;10218;42.874;25.320;2024-02-28T10:51:01;97561.69;;;21.85;40.13
20115;BME280;10218;42.874;25.320;2024-02-28T10:53:36;97560.09;;;22.42;39.25
20115;BME280;10218;42.874;25.320;2024-02-28T10:56:10;97564.47;;;22.08;40.55
20115;BME280;10218;42.874;25.320;2024-02-28T10:58:51;97551.81;;;22.14;40.23
20115;BME280;10218;42.874;25.320;2024-02-28T11:01:19;97550.84;;;22.20;39.77
20115;BME280;10218;42.874;25.320;2024-02-28T11:03:49;97556.38;;;21.19;42.01
20115;BME280;10218;42.874;25.320;2024-02-28T11:06:21;97554.28;;;21.03;41.94
20115;BME280;10218;42.874;25.320;2024-02-28T11:08:49;97549.91;;;22.49;39.86
20115;BME280;10218;42.874;25.320;2024-02-28T11:11:20;97547.19;;;22.38;39.65
20115;BME280;10218;42.874;25.320;2024-02-28T11:13:57;97539.72;;;22.80;39.15
20115;BME280;10218;42.874;25.320;2024-02-28T11:16:31;97543.38;;;23.25;38.37
20115;BME280;10218;42.874;25.320;2024-02-28T11:19:00;97548.06;;;21.73;40.32
20115;BME280;10218;42.874;25.320;2024-02-28T11:21:28;97527.50;;;21.77;40.70
20115;BME280;10218;42.874;25.320;2024-02-28T11:24:01;97531.87;;;20.89;42.22
20115;BME280;10218;42.874;25.320;2024-02-28T11:26:29;97520.88;;;21.85;40.84
20115;BME280;10218;42.874;25.320;2024-02-28T11:28:57;97540.94;;;21.61;41.40
20115;BME280;10218;42.874;25.320;2024-02-28T11:31:24;97529.69;;;22.10;41.24
20115;BME280;10218;42.874;25.320;2024-02-28T11:33:51;97519.09;;;21.91;41.29
20115;BME280;10218;42.874;25.320;2024-02-28T11:36:18;97515.25;;;22.33;41.10
20115;BME280;10218;42.874;25.320;2024-02-28T11:38:46;97514.81;;;22.88;40.55
20115;BME280;10218;42.874;25.320;2024-02-28T11:41:13;97519.22;;;20.83;43.33
20115;BME280;10218;42.874;25.320;2024-02-28T11:43:40;97508.19;;;21.56;42.91
20115;BME280;10218;42.874;25.320;2024-02-28T11:46:09;97511.50;;;22.86;40.88
20115;BME280;10218;42.874;25.320;2024-02-28T11:48:40;97503.03;;;21.77;41.49
20115;BME280;10218;42.874;25.320;2024-02-28T11:51:07;97498.56;;;22.18;41.45
20115;BME280;10218;42.874;25.320;2024-02-28T11:53:34;97494.56;;;22.84;40.13
20115;BME280;10218;42.874;25.320;2024-02-28T11:56:02;97491.69;;;22.27;39.12
20115;BME280;10218;42.874;25.320;2024-02-28T11:58:30;97491.81;;;23.85;36.79
20115;BME280;10218;42.874;25.320;2024-02-28T12:00:57;97492.50;;;24.48;36.08
20115;BME280;10218;42.874;25.320;2024-02-28T12:03:25;97499.16;;;23.23;37.64
20115;BME280;10218;42.874;25.320;2024-02-28T12:05:54;97483.41;;;24.64;35.43
20115;BME280;10218;42.874;25.320;2024-02-28T12:08:21;97486.69;;;24.22;35.40
20115;BME280;10218;42.874;25.320;2024-02-28T12:10:51;97479.38;;;25.37;34.29
20115;BME280;10218;42.874;25.320;2024-02-28T12:13:18;97493.87;;;24.89;34.42
20115;BME280;10218;42.874;25.320;2024-02-28T12:15:45;97485.59;;;24.07;35.88
20115;BME280;10218;42.874;25.320;2024-02-28T12:18:17;97475.03;;;24.49;35.38
20115;BME280;10218;42.874;25.320;2024-02-28T12:20:44;97477.81;;;25.46;34.02
20115;BME280;10218;42.874;25.320;2024-02-28T12:23:12;97479.28;;;22.83;37.58
20115;BME280;10218;42.874;25.320;2024-02-28T12:25:39;97470.34;;;22.47;38.56
20115;BME280;10218;42.874;25.320;2024-02-28T12:28:06;97459.50;;;21.77;40.29
20115;BME280;10218;42.874;25.320;2024-02-28T12:30:40;97461.38;;;21.65;40.94
20115;BME280;10218;42.874;25.320;2024-02-28T12:33:11;97456.44;;;22.32;39.99
20115;BME280;10218;42.874;25.320;2024-02-28T12:35:38;97470.56;;;22.57;39.91
20115;BME280;10218;42.874;25.320;2024-02-28T12:38:05;97473.91;;;22.99;39.30
20115;BME280;10218;42.874;25.320;2024-02-28T12:40:33;97461.38;;;21.42;41.33
20115;BME280;10218;42.874;25.320;2024-02-28T12:43:00;97461.50;;;22.92;39.60
20115;BME280;10218;42.874;25.320;2024-02-28T12:45:27;97450.53;;;21.89;41.16
20115;BME280;10218;42.874;25.320;2024-02-28T12:47:54;97466.81;;;23.43;38.52
20115;BME280;10218;42.874;25.320;2024-02-28T12:50:23;97461.16;;;23.62;38.43
20115;BME280;10218;42.874;25.320;2024-02-28T12:52:51;97465.00;;;24.54;36.81